createdAt,value
2023-03-12T00:01:31.063Z,0.36
2023-03-12T00:04:02.462Z,0.37
2023-03-12T00:06:31.623Z,0.38
2023-03-12T00:09:02.609Z,0.34
2023-03-12T00:11:32.130Z,0.31
2023-03-12T00:14:00.903Z,0.31
2023-03-12T00:16:30.329Z,0.31
2023-03-12T00:18:59.880Z,0.29
2023-03-12T00:21:28.697Z,0.25
2023-03-12T00:23:58.448Z,0.21
2023-03-12T00:26:28.128Z,0.18
2023-03-12T00:28:57.697Z,0.13
2023-03-12T00:31:29.234Z,0.08
2023-03-12T00:33:57.860Z,0.02
2023-03-12T00:36:28.954Z,-0.05
2023-03-12T00:38:59.338Z,-0.11
2023-03-12T00:41:28.853Z,-0.18
2023-03-12T00:43:58.902Z,-0.24
2023-03-12T00:46:29.035Z,-0.30
2023-03-12T00:49:00.334Z,-0.36
2023-03-12T00:51:29.515Z,-0.40
2023-03-12T00:53:59.214Z,-0.46
2023-03-12T00:56:29.139Z,-0.51
2023-03-12T00:58:58.344Z,-0.56
2023-03-12T01:01:28.550Z,-0.60
2023-03-12T01:03:59.563Z,-0.62
2023-03-12T01:06:28.891Z,-0.64
2023-03-12T01:08:57.960Z,-0.68
2023-03-12T01:11:27.911Z,-0.69
2023-03-12T01:13:57.749Z,-0.70
2023-03-12T01:16:28.629Z,-0.71
2023-03-12T01:19:00.260Z,-0.71
2023-03-12T01:21:31.411Z,-0.70
2023-03-12T01:24:00.565Z,-0.70
2023-03-12T01:26:32.287Z,-0.68
2023-03-12T01:29:02.793Z,-0.67
2023-03-12T01:31:32.316Z,-0.65
2023-03-12T01:34:02.701Z,-0.62
2023-03-12T01:36:32.282Z,-0.60
2023-03-12T01:39:04.099Z,-0.57
2023-03-12T01:41:35.276Z,-0.54
2023-03-12T01:44:06.958Z,-0.51
2023-03-12T01:46:39.016Z,-0.48
2023-03-12T01:49:33.031Z,-0.48
2023-03-12T01:52:06.392Z,-0.46
2023-03-12T01:54:54.473Z,-0.44
2023-03-12T01:57:35.080Z,-0.42
2023-03-12T02:00:15.639Z,-0.43
2023-03-12T02:02:45.447Z,-0.45
2023-03-12T02:05:24.566Z,-0.43
2023-03-12T02:07:54.602Z,-0.43
2023-03-12T02:10:25.838Z,-0.45
2023-03-12T02:12:56.202Z,-0.43
2023-03-12T02:15:27.052Z,-0.42
2023-03-12T02:17:57.198Z,-0.42
2023-03-12T02:20:56.222Z,-0.44
2023-03-12T02:23:36.382Z,-0.42
2023-03-12T02:26:07.272Z,-0.43
2023-03-12T02:28:43.733Z,-0.40
2023-03-12T02:31:18.958Z,-0.40
2023-03-12T02:33:49.272Z,-0.42
2023-03-12T02:36:22.276Z,-0.41
2023-03-12T02:38:54.185Z,-0.40
2023-03-12T02:41:30.176Z,-0.39
2023-03-12T02:44:21.233Z,-0.39
2023-03-12T02:46:56.338Z,-0.37
2023-03-12T02:49:28.106Z,-0.39
2023-03-12T02:52:00.582Z,-0.38
2023-03-12T02:54:32.387Z,-0.41
2023-03-12T02:57:03.433Z,-0.40
2023-03-12T02:59:34.734Z,-0.39
2023-03-12T03:02:07.400Z,-0.38
2023-03-12T03:04:36.346Z,-0.36
2023-03-12T03:07:07.775Z,-0.36
2023-03-12T03:09:38.091Z,-0.40
2023-03-12T03:12:08.427Z,-0.40
2023-03-12T03:14:39.277Z,-0.43
2023-03-12T03:17:09.099Z,-0.41
2023-03-12T03:19:39.035Z,-0.43
2023-03-12T03:22:09.754Z,-0.43
2023-03-12T03:24:39.183Z,-0.45
2023-03-12T03:27:10.324Z,-0.43
2023-03-12T03:29:41.636Z,-0.43
2023-03-12T03:32:11.256Z,-0.43
2023-03-12T03:34:42.113Z,-0.43
2023-03-12T03:37:14.697Z,-0.44
2023-03-12T03:39:48.560Z,-0.46
2023-03-12T03:42:23.271Z,-0.51
2023-03-12T03:44:53.725Z,-0.51
2023-03-12T03:47:24.874Z,-0.52
2023-03-12T03:49:55.849Z,-0.54
2023-03-12T03:52:26.651Z,-0.58
2023-03-12T03:54:57.890Z,-0.58
2023-03-12T03:57:28.336Z,-0.60
2023-03-12T04:00:03.885Z,-0.62
2023-03-12T04:02:43.596Z,-0.65
2023-03-12T04:05:13.290Z,-0.68
2023-03-12T04:07:43.210Z,-0.69
2023-03-12T04:10:13.954Z,-0.70
2023-03-12T04:12:43.704Z,-0.73
2023-03-12T04:15:13.070Z,-0.76
2023-03-12T04:17:42.519Z,-0.75
2023-03-12T04:20:13.364Z,-0.76
2023-03-12T04:22:43.522Z,-0.81
2023-03-12T04:25:12.538Z,-0.82
2023-03-12T04:27:41.775Z,-0.85
2023-03-12T04:30:11.739Z,-0.89
2023-03-12T04:32:42.057Z,-0.89
2023-03-12T04:35:11.550Z,-0.93
2023-03-12T04:37:41.482Z,-0.95
2023-03-12T04:40:11.274Z,-0.99
2023-03-12T04:42:40.497Z,-0.96
2023-03-12T04:45:10.731Z,-0.98
2023-03-12T04:47:41.650Z,-0.99
2023-03-12T04:50:12.684Z,-1.06
2023-03-12T04:52:42.189Z,-1.09
2023-03-12T04:55:11.199Z,-1.13
2023-03-12T04:57:40.481Z,-1.22
2023-03-12T05:00:13.461Z,-1.26
2023-03-12T05:02:43.118Z,-1.32
2023-03-12T05:05:12.519Z,-1.36
2023-03-12T05:07:42.149Z,-1.38
2023-03-12T05:10:11.996Z,-1.40
2023-03-12T05:12:41.770Z,-1.44
2023-03-12T05:15:12.067Z,-1.46
2023-03-12T05:17:41.538Z,-1.45
2023-03-12T05:20:11.465Z,-1.42
2023-03-12T05:22:41.182Z,-1.42
2023-03-12T05:25:10.457Z,-1.35
2023-03-12T05:27:39.758Z,-1.30
2023-03-12T05:30:10.082Z,-1.27
2023-03-12T05:32:39.483Z,-1.20
2023-03-12T05:35:08.257Z,-1.09
2023-03-12T05:37:37.982Z,-0.90
2023-03-12T05:40:08.401Z,-0.70
2023-03-12T05:42:38.118Z,-0.56
2023-03-12T05:45:09.723Z,-0.41
2023-03-12T05:47:39.274Z,-0.18
2023-03-12T05:50:10.033Z,-0.00
2023-03-12T05:52:39.009Z,0.10
2023-03-12T05:55:08.188Z,0.29
2023-03-12T05:57:36.987Z,0.36
2023-03-12T06:00:06.473Z,0.61
2023-03-12T06:02:42.091Z,0.98
2023-03-12T06:05:12.035Z,1.39
2023-03-12T06:07:41.246Z,1.35
2023-03-12T06:10:10.442Z,1.31
2023-03-12T06:12:39.321Z,1.81
2023-03-12T06:15:08.731Z,1.33
2023-03-12T06:17:38.023Z,1.69
2023-03-12T06:20:07.640Z,2.18
2023-03-12T06:22:36.834Z,2.15
2023-03-12T06:25:06.244Z,2.03
2023-03-12T06:27:35.224Z,1.73
2023-03-12T06:30:04.425Z,1.43
2023-03-12T06:32:33.467Z,1.91
2023-03-12T06:35:02.917Z,2.27
2023-03-12T06:37:31.719Z,2.77
2023-03-12T06:40:00.391Z,2.85
2023-03-12T06:42:29.077Z,3.20
2023-03-12T06:44:58.077Z,3.19
2023-03-12T06:47:26.765Z,3.46
2023-03-12T06:49:55.338Z,3.62
2023-03-12T06:52:23.821Z,3.54
2023-03-12T06:54:52.924Z,3.56
2023-03-12T06:57:21.803Z,3.28
2023-03-12T06:59:50.772Z,3.23
2023-03-12T07:02:19.414Z,3.44
2023-03-12T07:04:48.024Z,3.80
2023-03-12T07:07:17.368Z,3.71
2023-03-12T07:09:45.954Z,3.87
2023-03-12T07:12:14.431Z,3.40
2023-03-12T07:14:43.329Z,2.67
2023-03-12T07:17:12.483Z,2.52
2023-03-12T07:19:41.417Z,3.20
2023-03-12T07:22:10.102Z,3.77
2023-03-12T07:24:38.686Z,3.82
2023-03-12T07:27:07.165Z,3.09
2023-03-12T07:29:36.158Z,3.34
2023-03-12T07:32:05.459Z,3.49
2023-03-12T07:34:34.052Z,3.70
2023-03-12T07:37:02.722Z,4.15
2023-03-12T07:39:31.755Z,4.19
2023-03-12T07:42:00.347Z,3.84
2023-03-12T07:44:30.009Z,4.39
2023-03-12T07:47:02.962Z,4.87
2023-03-12T07:49:39.822Z,5.01
2023-03-12T07:52:11.706Z,3.87
2023-03-12T07:54:40.459Z,3.78
2023-03-12T07:57:09.190Z,4.01
2023-03-12T07:59:38.098Z,3.76
2023-03-12T08:02:07.302Z,3.76
2023-03-12T08:04:35.998Z,3.75
2023-03-12T08:07:05.782Z,4.01
2023-03-12T08:09:35.804Z,4.02
2023-03-12T08:12:04.827Z,4.11
2023-03-12T08:14:33.805Z,4.05
2023-03-12T08:17:02.488Z,3.81
2023-03-12T08:19:31.368Z,3.68
2023-03-12T08:22:00.049Z,3.48
2023-03-12T08:24:28.532Z,3.42
2023-03-12T08:26:57.111Z,3.18
2023-03-12T08:29:25.905Z,2.97
2023-03-12T08:32:04.411Z,2.82
2023-03-12T08:34:35.071Z,2.84
2023-03-12T08:37:03.939Z,3.30
2023-03-12T08:39:32.634Z,3.84
2023-03-12T08:42:01.207Z,4.19
2023-03-12T08:44:29.999Z,4.03
2023-03-12T08:46:58.278Z,3.77
2023-03-12T08:49:26.651Z,3.89
2023-03-12T08:51:55.133Z,4.13
2023-03-12T08:54:24.021Z,4.01
2023-03-12T08:56:53.186Z,4.13
2023-03-12T08:59:22.545Z,4.02
2023-03-12T09:01:51.321Z,4.04
2023-03-12T09:04:20.351Z,4.26
2023-03-12T09:06:48.888Z,4.32
2023-03-12T09:09:17.470Z,4.59
2023-03-12T09:11:45.850Z,4.68
2023-03-12T09:17:03.140Z,5.17
2023-03-12T09:19:31.770Z,5.39
2023-03-12T09:22:00.265Z,5.82
2023-03-12T09:36:26.019Z,6.99
2023-03-12T09:38:55.535Z,7.38
2023-03-12T09:41:27.756Z,7.72
2023-03-12T09:44:21.265Z,7.63
2023-03-12T09:46:56.974Z,7.14
2023-03-12T09:49:34.708Z,5.72
2023-03-12T09:52:18.655Z,5.37
2023-03-12T09:55:11.208Z,5.47
2023-03-12T09:57:40.090Z,5.81
2023-03-12T10:00:17.579Z,6.21
2023-03-12T10:03:24.285Z,6.43
2023-03-12T10:06:26.858Z,6.00
2023-03-12T10:09:25.421Z,6.57
2023-03-12T10:12:06.712Z,7.59
2023-03-12T10:14:50.131Z,8.43
2023-03-12T10:17:37.116Z,8.95
2023-03-12T10:20:22.843Z,8.98
2023-03-12T10:23:04.122Z,9.05
2023-03-12T10:25:45.494Z,9.90
2023-03-12T10:28:38.050Z,9.39
2023-03-12T10:31:20.413Z,9.75
2023-03-12T10:33:54.570Z,11.31
2023-03-12T10:36:30.111Z,12.02
2023-03-12T10:38:58.907Z,11.87
2023-03-12T10:41:34.781Z,11.86
2023-03-12T10:44:08.672Z,11.18
2023-03-12T10:59:30.973Z,13.11
2023-03-12T11:02:01.029Z,14.16
2023-03-12T11:04:32.856Z,14.66
2023-03-12T11:07:15.658Z,14.84
2023-03-12T11:09:44.829Z,15.44
2023-03-12T11:12:28.596Z,14.76
2023-03-12T11:14:58.310Z,15.07
2023-03-12T11:17:28.946Z,15.19
2023-03-12T11:19:57.929Z,15.70
2023-03-12T11:22:35.269Z,15.24
2023-03-12T11:25:07.815Z,13.98
2023-03-12T11:27:49.827Z,12.93
2023-03-12T11:30:25.078Z,12.12
2023-03-12T11:32:54.140Z,12.75
2023-03-12T11:35:39.615Z,13.67
2023-03-12T11:38:18.975Z,13.75
2023-03-12T11:41:09.231Z,13.95
2023-03-12T11:44:16.320Z,14.89
2023-03-12T11:47:00.080Z,13.10
2023-03-12T11:49:41.236Z,13.11
2023-03-12T11:52:27.532Z,13.72
2023-03-12T11:55:24.887Z,14.07
2023-03-12T11:58:09.243Z,14.53
2023-03-12T12:01:09.057Z,15.40
2023-03-12T12:03:53.002Z,15.52
2023-03-12T12:06:39.419Z,15.55
2023-03-12T12:09:20.696Z,15.64
2023-03-12T12:12:13.439Z,15.20
2023-03-12T12:14:45.194Z,12.92
2023-03-12T12:17:22.171Z,13.09
2023-03-12T12:20:42.161Z,13.96
2023-03-12T12:23:11.047Z,13.82
2023-03-12T12:26:07.500Z,13.95
2023-03-12T12:28:57.175Z,14.07
2023-03-12T12:31:40.860Z,14.28
2023-03-12T12:34:21.671Z,15.01
2023-03-12T12:36:57.731Z,14.27
2023-03-12T12:39:35.597Z,13.47
2023-03-12T12:42:08.255Z,12.03
2023-03-12T12:44:49.110Z,12.52
2023-03-12T12:47:28.925Z,12.90
2023-03-12T12:49:58.634Z,13.13
2023-03-12T12:52:27.834Z,13.75
2023-03-12T12:55:05.733Z,13.82
2023-03-12T12:57:34.775Z,13.87
2023-03-12T13:00:15.702Z,14.54
2023-03-12T13:02:48.232Z,14.86
2023-03-12T13:05:25.980Z,15.51
2023-03-12T13:07:55.178Z,15.31
2023-03-12T13:10:33.002Z,15.36
2023-03-12T13:13:07.910Z,15.02
2023-03-12T13:15:43.789Z,14.74
2023-03-12T13:18:24.622Z,15.37
2023-03-12T13:20:53.120Z,15.45
2023-03-12T13:23:31.438Z,15.30
2023-03-12T13:26:35.770Z,15.64
2023-03-12T13:29:37.526Z,15.31
2023-03-12T13:32:10.617Z,15.81
2023-03-12T13:34:47.490Z,14.62
2023-03-12T13:37:29.067Z,15.26
2023-03-12T13:40:03.393Z,15.48
2023-03-12T13:42:42.131Z,15.66
2023-03-12T13:45:31.930Z,15.96
2023-03-12T13:48:04.988Z,15.74
2023-03-12T13:50:52.296Z,16.30
2023-03-12T13:53:28.358Z,16.48
2023-03-12T13:56:28.064Z,16.35
2023-03-12T13:59:07.310Z,16.50
2023-03-12T14:01:47.173Z,16.55
2023-03-12T14:04:22.897Z,15.78
2023-03-12T14:07:03.667Z,15.73
2023-03-12T14:09:53.246Z,16.13
2023-03-12T14:13:04.627Z,16.22
2023-03-12T14:15:42.776Z,16.43
2023-03-12T14:18:28.718Z,16.55
2023-03-12T14:21:00.841Z,16.05
2023-03-12T14:23:37.557Z,15.80
2023-03-12T14:26:07.690Z,15.86
2023-03-12T14:28:41.992Z,15.29
2023-03-12T14:31:17.531Z,15.07
2023-03-12T14:33:59.022Z,15.50
2023-03-12T14:36:36.624Z,15.32
2023-03-12T14:39:25.997Z,14.86
2023-03-12T14:42:00.831Z,14.34
2023-03-12T14:44:31.053Z,14.56
2023-03-12T14:47:10.497Z,14.22
2023-03-12T14:49:44.910Z,14.58
2023-03-12T14:52:21.885Z,14.77
2023-03-12T14:54:59.888Z,13.80
2023-03-12T14:57:29.288Z,12.62
2023-03-12T15:00:00.393Z,13.41
2023-03-12T15:02:31.570Z,13.73
2023-03-12T15:05:02.590Z,13.50
2023-03-12T15:07:35.724Z,13.53
2023-03-12T15:10:08.297Z,13.78
2023-03-12T15:12:38.620Z,13.67
2023-03-12T15:15:11.388Z,13.44
2023-03-12T15:17:40.384Z,13.34
2023-03-12T15:20:15.936Z,13.54
2023-03-12T15:22:45.129Z,13.74
2023-03-12T15:25:25.276Z,13.63
2023-03-12T15:28:15.365Z,13.83
2023-03-12T15:30:44.623Z,13.87
2023-03-12T15:33:16.229Z,13.73
2023-03-12T15:36:18.754Z,13.53
2023-03-12T15:38:51.066Z,12.80
2023-03-12T15:41:49.208Z,12.79
2023-03-12T15:44:26.846Z,12.05
2023-03-12T15:47:04.373Z,11.27
2023-03-12T15:49:36.758Z,10.36
2023-03-12T15:52:20.541Z,9.52
2023-03-12T15:55:07.623Z,8.78
2023-03-12T15:57:48.223Z,8.13
2023-03-12T16:00:20.497Z,7.72
2023-03-12T16:02:55.941Z,7.29
2023-03-12T16:05:36.590Z,6.75
2023-03-12T16:08:31.903Z,6.34
2023-03-12T16:11:01.633Z,6.09
2023-03-12T16:13:32.317Z,5.81
2023-03-12T16:16:01.311Z,5.35
2023-03-12T16:18:30.035Z,5.13
2023-03-12T16:20:58.724Z,4.95
2023-03-12T16:23:27.406Z,4.75
2023-03-12T16:25:56.792Z,4.56
2023-03-12T16:28:26.113Z,4.32
2023-03-12T16:30:55.003Z,4.11
2023-03-12T16:33:25.019Z,3.82
2023-03-12T16:35:53.664Z,3.53
2023-03-12T16:38:22.489Z,3.31
2023-03-12T16:40:54.094Z,3.07
2023-03-12T16:43:24.923Z,2.84
2023-03-12T16:45:54.463Z,2.64
2023-03-12T16:48:26.990Z,2.44
2023-03-12T16:50:58.924Z,2.25
2023-03-12T16:53:28.627Z,2.09
2023-03-12T16:56:00.076Z,1.95
2023-03-12T16:58:30.222Z,1.83
2023-03-12T17:00:59.122Z,1.72
2023-03-12T17:03:35.486Z,1.62
2023-03-12T17:06:06.731Z,1.54
2023-03-12T17:08:36.407Z,1.45
2023-03-12T17:11:15.600Z,1.34
2023-03-12T17:13:46.258Z,1.21
2023-03-12T17:16:14.992Z,1.10
2023-03-12T17:18:44.160Z,1.01
2023-03-12T17:21:15.407Z,0.90
2023-03-12T17:23:47.168Z,0.79
2023-03-12T17:26:15.741Z,0.72
2023-03-12T17:28:44.853Z,0.64
2023-03-12T17:31:13.545Z,0.56
2023-03-12T17:33:43.538Z,0.51
2023-03-12T17:36:12.122Z,0.45
2023-03-12T17:38:40.816Z,0.41
2023-03-12T17:41:25.128Z,0.34
2023-03-12T17:43:58.879Z,0.28
2023-03-12T17:46:29.167Z,0.21
2023-03-12T17:48:57.874Z,0.15
2023-03-12T17:51:26.568Z,0.10
2023-03-12T17:53:55.147Z,0.04
2023-03-12T17:56:23.732Z,-0.03
2023-03-12T17:58:52.320Z,-0.07
2023-03-12T18:01:20.996Z,-0.09
2023-03-12T18:03:51.572Z,-0.13
2023-03-12T18:06:20.105Z,-0.18
2023-03-12T18:08:48.686Z,-0.23
2023-03-12T18:11:17.383Z,-0.28
2023-03-12T18:13:48.618Z,-0.31
2023-03-12T18:16:17.844Z,-0.33
2023-03-12T18:18:46.508Z,-0.35
2023-03-12T18:21:15.095Z,-0.38
2023-03-12T18:23:44.199Z,-0.41
2023-03-12T18:26:12.865Z,-0.44
2023-03-12T18:28:41.347Z,-0.45
2023-03-12T18:31:10.592Z,-0.46
2023-03-12T18:33:39.241Z,-0.49
2023-03-12T18:36:08.732Z,-0.56
2023-03-12T18:38:39.476Z,-0.62
2023-03-12T18:41:10.826Z,-0.68
2023-03-12T18:43:40.364Z,-0.71
2023-03-12T18:46:09.462Z,-0.76
2023-03-12T18:48:38.006Z,-0.79
2023-03-12T18:51:06.687Z,-0.84
2023-03-12T18:53:35.285Z,-0.88
2023-03-12T18:56:04.266Z,-0.92
2023-03-12T18:58:32.952Z,-0.97
2023-03-12T19:01:02.150Z,-1.02
2023-03-12T19:03:36.668Z,-1.04
2023-03-12T19:06:17.090Z,-1.05
2023-03-12T19:08:45.511Z,-1.06
2023-03-12T19:11:15.645Z,-1.08
2023-03-12T19:13:45.643Z,-1.09
2023-03-12T19:16:18.047Z,-1.11
2023-03-12T19:18:46.700Z,-1.14
2023-03-12T19:21:15.695Z,-1.18
2023-03-12T19:23:45.098Z,-1.26
2023-03-12T19:26:14.908Z,-1.37
2023-03-12T19:28:43.593Z,-1.43
2023-03-12T19:31:15.452Z,-1.48
2023-03-12T19:33:45.483Z,-1.52
2023-03-12T19:36:14.065Z,-1.56
2023-03-12T19:38:42.841Z,-1.61
2023-03-12T19:41:12.966Z,-1.67
2023-03-12T19:43:41.962Z,-1.73
2023-03-12T19:46:10.721Z,-1.80
2023-03-12T19:48:39.530Z,-1.84
2023-03-12T19:51:10.593Z,-1.87
2023-03-12T19:53:39.358Z,-1.91
2023-03-12T19:56:08.461Z,-1.96
2023-03-12T19:58:37.042Z,-2.01
2023-03-12T20:01:05.826Z,-2.05
2023-03-12T20:03:34.900Z,-2.08
2023-03-12T20:06:04.470Z,-2.14
2023-03-12T20:08:33.108Z,-2.22
2023-03-12T20:11:07.324Z,-2.28
2023-03-12T20:13:38.978Z,-2.34
2023-03-12T20:16:08.569Z,-2.37
2023-03-12T20:18:39.725Z,-2.40
2023-03-12T20:21:08.863Z,-2.43
2023-03-12T20:23:37.516Z,-2.47
2023-03-12T20:26:06.301Z,-2.51
2023-03-12T20:28:35.293Z,-2.55
2023-03-12T20:31:14.421Z,-2.59
2023-03-12T20:33:43.432Z,-2.64
2023-03-12T20:36:14.272Z,-2.66
2023-03-12T20:38:43.546Z,-2.68
2023-03-12T20:41:16.018Z,-2.70
2023-03-12T20:43:45.638Z,-2.72
2023-03-12T20:46:14.664Z,-2.75
2023-03-12T20:48:43.825Z,-2.78
2023-03-12T20:51:12.717Z,-2.82
2023-03-12T20:53:41.508Z,-2.87
2023-03-12T20:56:11.349Z,-2.91
2023-03-12T20:58:40.200Z,-2.94
2023-03-12T21:01:09.347Z,-2.97
2023-03-12T21:03:37.884Z,-2.99
2023-03-12T21:06:07.286Z,-3.02
2023-03-12T21:08:35.874Z,-3.06
2023-03-12T21:11:08.986Z,-3.09
2023-03-12T21:13:37.569Z,-3.12
2023-03-12T21:16:08.129Z,-3.17
2023-03-12T21:18:36.966Z,-3.19
2023-03-12T21:21:08.247Z,-3.22
2023-03-12T21:23:38.180Z,-3.28
2023-03-12T21:26:09.372Z,-3.32
2023-03-12T21:28:38.585Z,-3.37
2023-03-12T21:31:12.902Z,-3.39
2023-03-12T21:33:42.504Z,-3.40
2023-03-12T21:36:13.799Z,-3.40
2023-03-12T21:38:43.412Z,-3.42
2023-03-12T21:41:15.726Z,-3.43
2023-03-12T21:43:45.630Z,-3.45
2023-03-12T21:46:19.057Z,-3.46
2023-03-12T21:48:48.687Z,-3.48
2023-03-12T21:51:18.984Z,-3.52
2023-03-12T21:53:47.642Z,-3.55
2023-03-12T21:56:16.761Z,-3.55
2023-03-12T21:58:45.526Z,-3.56
2023-03-12T22:01:17.570Z,-3.61
2023-03-12T22:03:47.687Z,-3.66
2023-03-12T22:06:17.017Z,-3.68
2023-03-12T22:08:48.390Z,-3.68
2023-03-12T22:11:17.450Z,-3.65
2023-03-12T22:13:46.569Z,-3.62
2023-03-12T22:16:16.617Z,-3.60
2023-03-12T22:18:46.789Z,-3.61
2023-03-12T22:21:19.773Z,-3.65
2023-03-12T22:23:53.783Z,-3.69
2023-03-12T22:26:25.276Z,-3.73
2023-03-12T22:28:57.329Z,-3.76
2023-03-12T22:31:28.284Z,-3.78
2023-03-12T22:33:58.047Z,-3.84
2023-03-12T22:36:27.662Z,-3.90
2023-03-12T22:38:56.849Z,-3.97
2023-03-12T22:41:30.044Z,-3.99
2023-03-12T22:44:05.620Z,-4.00
2023-03-12T22:46:34.928Z,-3.97
2023-03-12T22:49:05.387Z,-3.98
2023-03-12T22:51:34.840Z,-4.00
2023-03-12T22:54:05.210Z,-4.03
2023-03-12T22:56:34.627Z,-4.03
2023-03-12T22:59:04.251Z,-4.00
2023-03-12T23:01:33.581Z,-3.96
2023-03-12T23:04:04.514Z,-3.92
2023-03-12T23:06:33.500Z,-3.89
2023-03-12T23:09:02.699Z,-3.90
2023-03-12T23:11:31.793Z,-3.94
2023-03-12T23:14:00.977Z,-3.97
2023-03-12T23:16:30.225Z,-3.98
2023-03-12T23:19:00.620Z,-4.01
2023-03-12T23:21:30.220Z,-4.04
2023-03-12T23:23:59.505Z,-4.08
2023-03-12T23:26:29.936Z,-4.12
2023-03-12T23:28:59.971Z,-4.15
2023-03-12T23:31:30.580Z,-4.18
2023-03-12T23:34:00.371Z,-4.22
2023-03-12T23:36:30.985Z,-4.25
2023-03-12T23:39:00.559Z,-4.28
2023-03-12T23:41:31.120Z,-4.32
2023-03-12T23:44:01.976Z,-4.38
2023-03-12T23:46:31.952Z,-4.42
2023-03-12T23:49:01.563Z,-4.45
2023-03-12T23:51:33.634Z,-4.45
2023-03-12T23:54:05.963Z,-4.46
2023-03-12T23:56:37.779Z,-4.48
2023-03-12T23:59:09.787Z,-4.52
